Terminal Aerodrome Forecast
Issued by NWS Cleveland, OH

Home | Current Version | Previous Version | Graphics & Text | Print | Product List | Glossary On
Versions: 1 2 3 4 5 6 7 8 9 10 11 12 13 14 15 16 17 18 19
000
FTUS41 KCLE 162159 AAA
TAFERI
TAF AMD
KERI 162159Z 1622/1718 27010KT 1 1/2SM -SHSN OVC025
      TEMPO 1622/1702 3/4SM -SHSN OVC015
     FM170300 23007KT 3SM -SHSN OVC025
     FM171200 22008KT P6SM OVC025
     FM171700 24011G20KT P6SM OVC035=

USA.gov is the U.S. government's official web portal to all federal, state and local government web resources and services.